Time;durP1;ratioP1;P1;durP2;ratioP2;P2;SDS_P1;SDS_P2;PMS_P1;PMS_P2;Temp;Humidity;BMP_temperature;BMP_pressure;BME280_temperature;BME280_humidity;BME280_pressure;Samples;Min_cycle;Max_cycle;Signal;HPM_P1;HPM_P2
2022/01/12 00:00:39;;;;;;;28.15;14.77;;;;;;;4.31;97.34;100096.38;10171524;29;20127;-76
2022/01/12 00:05:40;;;;;;;27.95;15.00;;;;;;;4.71;97.30;100177.06;10173026;29;20043;-76
2022/01/12 00:10:41;;;;;;;26.13;15.13;;;;;;;4.58;97.18;100146.56;10172390;29;20521;-76
2022/01/12 00:15:42;;;;;;;26.58;14.98;;;;;;;5.68;97.42;100330.84;10172992;29;20047;-75
2022/01/12 00:20:43;;;;;;;25.17;14.77;;;;;;;5.22;97.31;100244.53;10172738;29;20047;-76
2022/01/12 00:36:16;;;;;;;24.42;14.88;;;;;;;5.00;96.24;100166.63;10168533;29;20134;-75
2022/01/12 00:41:18;;;;;;;22.80;14.85;;;;;;;4.72;96.59;100107.69;10150175;29;20161;-76
2022/01/12 00:46:18;;;;;;;25.27;14.57;;;;;;;5.87;95.74;100300.19;10166851;29;20051;-76
2022/01/12 00:51:19;;;;;;;23.83;14.18;;;;;;;5.40;95.57;100234.97;10151792;29;20048;-76
2022/01/12 00:56:21;;;;;;;23.85;15.23;;;;;;;5.72;96.57;100302.41;10140373;29;20040;-76
2022/01/12 01:01:23;;;;;;;24.67;14.30;;;;;;;4.91;95.71;100162.16;10140592;29;20051;-75
2022/01/12 01:06:23;;;;;;;27.00;14.60;;;;;;;5.67;96.12;100281.72;10172894;29;20051;-76
2022/01/12 01:11:24;;;;;;;25.30;13.65;;;;;;;5.57;96.40;100261.63;10178475;29;20068;-75
2022/01/12 01:27:02;;;;;;;20.25;13.98;;;;;;;5.00;96.22;100201.66;10178232;29;20037;-75
2022/01/12 01:32:03;;;;;;;23.98;14.48;;;;;;;4.86;96.44;100172.25;10178010;29;20092;-76
2022/01/12 01:37:04;;;;;;;23.35;14.90;;;;;;;4.83;96.31;100176.00;10176868;29;20044;-76
2022/01/12 01:42:15;;;;;;;29.23;15.20;;;;;;;3.92;95.60;100033.16;10177668;29;20521;-76
2022/01/12 01:57:56;;;;;;;26.50;15.90;;;;;;;5.24;97.16;100266.31;10217008;29;20082;-77
2022/01/12 02:02:57;;;;;;;30.20;16.65;;;;;;;3.82;97.20;100029.66;10215364;29;20096;-76
2022/01/12 02:07:59;;;;;;;32.33;16.38;;;;;;;5.43;97.56;100313.75;10216152;29;20115;-76
2022/01/12 02:13:01;;;;;;;28.42;16.65;;;;;;;5.44;97.77;100325.97;10217386;29;20059;-76
2022/01/12 02:18:30;;;;;;;33.03;17.10;;;;;;;5.40;98.05;100318.44;10216201;29;20512;-76
2022/01/12 02:39:55;;;;;;;37.63;19.05;;;;;;;4.57;98.44;100204.56;10137586;29;20128;-76
2022/01/12 02:55:34;;;;;;;36.25;18.65;;;;;;;4.93;99.38;100257.59;10136649;29;20045;-76
2022/01/12 03:00:57;;;;;;;36.28;18.52;;;;;;;4.67;98.97;100225.69;10136254;29;20051;-76
2022/01/12 03:06:02;;;;;;;35.45;18.08;;;;;;;5.28;99.25;100316.91;10187884;29;20100;-76
2022/01/12 03:11:08;;;;;;;33.45;17.65;;;;;;;5.24;99.82;100330.34;10168434;29;20071;-76
2022/01/12 03:16:14;;;;;;;30.25;16.55;;;;;;;5.22;99.43;100337.53;10171461;29;20044;-76
2022/01/12 03:21:19;;;;;;;33.67;16.95;;;;;;;5.20;100.00;100334.19;10174655;29;20095;-76
2022/01/12 03:26:22;;;;;;;35.35;16.73;;;;;;;3.98;99.62;100161.41;10173816;29;20050;-77
2022/01/12 03:31:27;;;;;;;35.15;16.23;;;;;;;3.00;99.41;100006.81;10173435;29;20040;-75
2022/01/12 03:36:42;;;;;;;35.22;16.15;;;;;;;5.16;100.00;100374.09;10172010;29;20452;-75
2022/01/12 03:41:44;;;;;;;31.83;15.93;;;;;;;4.71;100.00;100269.16;10173370;29;20043;-75
2022/01/12 03:46:53;;;;;;;31.67;15.35;;;;;;;4.53;100.00;100248.72;10173072;29;20413;-75
2022/01/12 03:51:53;;;;;;;31.40;15.48;;;;;;;4.36;100.00;100225.66;10171768;29;20051;-75
2022/01/12 03:56:54;;;;;;;32.65;16.38;;;;;;;3.81;100.00;100139.19;10164986;29;20408;-76
2022/01/12 04:01:55;;;;;;;32.85;16.45;;;;;;;4.76;100.00;100304.66;10174609;29;20191;-77
2022/01/12 04:12:16;;;;;;;35.67;16.58;;;;;;;4.83;100.00;100331.28;10189882;29;20415;-74
2022/01/12 04:17:17;;;;;;;35.47;16.08;;;;;;;3.71;100.00;100150.56;10181753;29;20136;-74
2022/01/12 04:27:37;;;;;;;31.80;16.88;;;;;;;4.43;100.00;100275.94;10176579;29;20087;-77
2022/01/12 04:32:42;;;;;;;34.50;16.60;;;;;;;4.19;100.00;100253.41;10180564;29;20059;-77
2022/01/12 04:37:43;;;;;;;;;;;;;;;4.89;100.00;100350.97;10180208;29;20044;-76
2022/01/12 04:42:43;;;;;;;34.47;15.98;;;;;;;4.39;100.00;100285.88;10180874;29;19919;-74
2022/01/12 04:52:55;;;;;;;30.23;16.42;;;;;;;3.13;100.00;100083.56;10202292;29;20036;-70
2022/01/12 04:57:56;;;;;;;35.35;15.98;;;;;;;4.74;100.00;100355.75;10179359;29;20119;-76
2022/01/12 05:13:31;;;;;;;34.42;16.73;;;;;;;3.34;100.00;100151.00;10179645;29;20058;-76
2022/01/12 05:18:34;;;;;;;36.08;16.75;;;;;;;3.92;100.00;100230.25;10179264;29;20044;-76
2022/01/12 05:23:35;;;;;;;36.22;16.98;;;;;;;3.96;100.00;100254.50;10178999;29;20036;-76
2022/01/12 05:28:38;;;;;;;33.10;15.88;;;;;;;4.68;100.00;100351.00;10178821;29;20138;-76
2022/01/12 05:33:45;;;;;;;38.08;15.20;;;;;;;4.16;100.00;100269.44;10178487;29;20079;-79
2022/01/12 05:38:47;;;;;;;32.55;14.90;;;;;;;2.73;100.00;100026.50;10177984;29;20044;-76
2022/01/12 05:43:48;;;;;;;32.05;15.35;;;;;;;4.39;100.00;100327.97;10178324;29;20127;-76
2022/01/12 05:54:07;;;;;;;29.13;14.52;;;;;;;3.65;100.00;100218.44;10177209;29;20052;-76
2022/01/12 05:59:08;;;;;;;30.05;14.00;;;;;;;3.92;100.00;100268.81;10177148;29;20499;-76
2022/01/12 06:04:09;;;;;;;33.90;13.82;;;;;;;4.42;100.00;100366.34;10177640;29;20492;-76
2022/01/12 06:09:10;;;;;;;26.73;13.15;;;;;;;4.63;100.00;100393.47;10177383;29;20083;-76
2022/01/12 06:14:12;;;;;;;31.95;13.80;;;;;;;4.60;100.00;100387.66;10176569;29;20048;-76
2022/01/12 06:19:15;;;;;;;34.10;14.18;;;;;;;3.60;100.00;100215.34;10177136;29;20409;-76
2022/01/12 06:24:16;;;;;;;32.28;13.88;;;;;;;4.07;100.00;100283.34;10177427;29;20055;-76
2022/01/12 06:34:21;;;;;;;25.13;13.40;;;;;;;4.78;100.00;100381.66;10176804;29;20040;-76
2022/01/12 06:39:23;;;;;;;28.17;12.35;;;;;;;5.04;100.00;100410.22;10176320;29;20250;-76
2022/01/12 06:44:25;;;;;;;23.67;11.88;;;;;;;4.69;100.00;100345.59;10175576;29;20048;-76
2022/01/12 06:49:26;;;;;;;27.58;12.38;;;;;;;4.05;100.00;100241.41;10175079;29;20051;-78
2022/01/12 06:54:27;;;;;;;21.33;10.75;;;;;;;3.99;100.00;100236.66;10175043;29;20055;-76
2022/01/12 06:59:28;;;;;;;22.38;11.07;;;;;;;5.03;100.00;100398.03;10176061;29;20040;-76
2022/01/12 07:04:29;;;;;;;21.17;11.10;;;;;;;3.50;100.00;100135.69;10175076;29;20069;-76
2022/01/12 07:09:30;;;;;;;23.10;10.57;;;;;;;5.07;100.00;100374.91;10174651;29;20060;-76
2022/01/12 07:14:31;;;;;;;22.38;10.80;;;;;;;5.19;100.00;100377.28;10175357;29;20144;-75
2022/01/12 07:19:31;;;;;;;21.20;10.30;;;;;;;4.76;99.59;100295.94;10175361;29;20160;-76
2022/01/12 07:24:32;;;;;;;22.63;10.27;;;;;;;5.14;100.00;100368.13;10173985;29;20048;-76
2022/01/12 07:29:33;;;;;;;18.52;9.10;;;;;;;4.67;100.00;100281.75;10174501;29;20044;-77
2022/01/12 07:34:34;;;;;;;19.02;9.60;;;;;;;5.36;99.91;100383.75;10173708;29;20051;-76
2022/01/12 07:39:35;;;;;;;19.13;9.00;;;;;;;4.94;99.71;100320.66;10173448;29;20420;-76
2022/01/12 07:44:36;;;;;;;20.45;9.63;;;;;;;5.09;99.83;100344.00;10173166;29;20508;-76
2022/01/12 07:49:36;;;;;;;14.57;7.90;;;;;;;5.18;99.65;100345.84;10173760;29;20404;-76
2022/01/12 07:54:37;;;;;;;14.93;7.72;;;;;;;4.68;99.41;100266.81;10174457;29;20496;-76
2022/01/12 07:59:38;;;;;;;14.93;7.93;;;;;;;5.14;99.17;100347.88;10173453;29;20404;-76
2022/01/12 08:04:39;;;;;;;15.70;7.38;;;;;;;4.99;97.97;100334.25;10173038;29;20044;-76
2022/01/12 08:09:41;;;;;;;13.65;7.15;;;;;;;5.13;98.16;100340.13;10172287;29;20064;-76
2022/01/12 08:14:42;;;;;;;12.48;6.07;;;;;;;4.65;97.90;100265.25;10173308;29;20499;-79
2022/01/12 08:19:43;;;;;;;11.13;5.82;;;;;;;4.84;97.83;100290.00;10173775;29;20135;-76
2022/01/12 08:24:44;;;;;;;17.85;6.22;;;;;;;4.69;97.00;100256.13;10172266;29;20465;-76
2022/01/12 08:29:44;;;;;;;11.73;5.47;;;;;;;5.00;97.15;100270.13;10171004;29;20051;-76
2022/01/12 08:34:45;;;;;;;13.32;6.30;;;;;;;5.40;96.30;100315.81;10172371;29;20051;-76
2022/01/12 08:39:46;;;;;;;10.93;4.97;;;;;;;5.29;96.74;100300.13;10172645;29;20106;-76
2022/01/12 08:44:47;;;;;;;8.30;4.95;;;;;;;5.30;96.57;100292.09;10171898;29;20072;-76
2022/01/12 08:49:47;;;;;;;10.30;4.60;;;;;;;3.54;95.62;99987.38;10172471;29;20040;-76
2022/01/12 08:54:48;;;;;;;12.70;7.88;;;;;;;4.78;96.07;100179.00;10171646;29;20048;-76
2022/01/12 08:59:49;;;;;;;10.15;5.10;;;;;;;4.92;95.66;100164.66;10172171;29;20040;-76
2022/01/12 09:04:50;;;;;;;7.00;4.35;;;;;;;4.27;95.05;100058.16;10172111;29;20139;-76
2022/01/12 09:09:52;;;;;;;7.10;4.22;;;;;;;5.51;95.64;100222.66;10172134;29;20056;-76
2022/01/12 09:14:53;;;;;;;7.88;4.25;;;;;;;5.88;94.34;100244.69;10177327;29;20047;-76
2022/01/12 09:19:54;;;;;;;9.32;4.38;;;;;;;6.09;94.07;100284.13;10179196;29;20044;-75
2022/01/12 09:24:55;;;;;;;5.82;3.88;;;;;;;5.75;93.67;100244.16;10178425;29;20107;-76
2022/01/12 09:29:55;;;;;;;7.22;4.18;;;;;;;5.92;93.63;100271.59;10178886;29;20560;-76
2022/01/12 09:34:56;;;;;;;11.13;3.78;;;;;;;5.52;94.19;100227.78;10178409;29;20095;-76
2022/01/12 09:39:57;;;;;;;8.48;3.97;;;;;;;4.73;93.45;100062.00;10178592;29;20052;-77
2022/01/12 09:44:58;;;;;;;10.82;4.53;;;;;;;5.64;93.95;100202.13;10177822;29;20050;-76
2022/01/12 09:50:00;;;;;;;7.60;3.90;;;;;;;5.47;93.61;100170.25;10177735;29;20149;-76
2022/01/12 09:55:01;;;;;;;7.53;4.63;;;;;;;6.02;93.64;100264.56;10178416;29;20050;-76
2022/01/12 10:00:06;;;;;;;8.90;4.78;;;;;;;4.92;93.51;100082.22;10178204;29;20048;-76
2022/01/12 10:05:09;;;;;;;6.32;3.75;;;;;;;4.71;93.92;100056.03;10177152;29;20058;-76
2022/01/12 10:10:14;;;;;;;6.72;3.88;;;;;;;5.64;94.88;100210.84;10177401;29;20063;-76
2022/01/12 10:15:15;;;;;;;6.85;4.07;;;;;;;5.00;94.58;100119.22;10177551;29;20060;-76
2022/01/12 10:20:21;;;;;;;7.00;3.90;;;;;;;5.37;95.34;100166.75;10177561;29;20036;-76
2022/01/12 10:25:22;;;;;;;9.63;3.97;;;;;;;5.78;95.44;100243.88;10175904;29;20100;-76
2022/01/12 10:30:25;;;;;;;11.20;4.45;;;;;;;5.83;95.52;100230.25;10176740;29;20099;-76
2022/01/12 10:35:27;;;;;;;9.38;4.20;;;;;;;5.76;95.55;100219.44;10175739;29;20051;-76
2022/01/12 10:40:27;;;;;;;9.82;4.28;;;;;;;5.69;95.57;100203.38;10176330;29;20054;-76
2022/01/12 10:45:28;;;;;;;8.27;3.80;;;;;;;4.65;96.00;100025.84;10175474;29;20127;-76
2022/01/12 10:50:29;;;;;;;9.40;4.32;;;;;;;4.74;96.23;100046.06;10175228;29;20051;-77
2022/01/12 10:55:30;;;;;;;7.20;4.22;;;;;;;5.01;95.41;100126.97;10175992;29;20135;-76
2022/01/12 11:00:31;;;;;;;9.75;4.72;;;;;;;5.44;96.53;100175.78;10176022;29;20040;-76
2022/01/12 11:05:32;;;;;;;9.55;4.60;;;;;;;6.14;96.35;100262.59;10175793;29;20598;-76
2022/01/12 11:10:33;;;;;;;11.27;7.50;;;;;;;6.26;96.33;100250.09;10173657;29;20112;-76
2022/01/12 11:15:34;;;;;;;6.68;4.18;;;;;;;5.39;94.89;100095.50;10174444;29;20051;-76
2022/01/12 11:20:40;;;;;;;8.20;4.00;;;;;;;5.86;95.35;100161.44;10174063;29;20060;-76
2022/01/12 11:25:41;;;;;;;;;;;;;;;6.38;95.15;100235.75;10175013;29;20408;-76
2022/01/12 11:30:51;;;;;;;8.48;4.60;;;;;;;6.15;95.13;100241.34;10174896;29;19923;-76
2022/01/12 11:35:53;;;;;;;8.00;4.18;;;;;;;5.18;95.53;100104.41;10173185;29;20055;-76
2022/01/12 11:40:56;;;;;;;8.85;4.35;;;;;;;6.04;96.12;100243.31;10174470;29;20044;-76
2022/01/12 11:46:04;;;;;;;11.57;4.22;;;;;;;6.02;96.07;100242.63;10173402;29;20040;-76
2022/01/12 11:51:05;;;;;;;18.08;5.30;;;;;;;4.35;95.64;99968.91;10174324;29;20050;-75
2022/01/12 11:56:11;;;;;;;12.65;5.82;;;;;;;5.94;96.24;100222.25;10173593;29;20099;-76
2022/01/12 12:01:15;;;;;;;13.93;5.72;;;;;;;4.86;96.29;100035.41;10172940;29;20044;-76
2022/01/12 12:06:19;;;;;;;10.57;5.13;;;;;;;6.01;96.04;100211.94;10173462;29;20044;-77
2022/01/12 12:11:21;;;;;;;12.25;5.32;;;;;;;6.16;96.42;100243.03;10172927;29;20543;-75
2022/01/12 12:16:22;;;;;;;11.55;5.38;;;;;;;6.20;96.52;100233.03;10172448;29;20086;-76
2022/01/12 12:21:24;;;;;;;9.65;5.60;;;;;;;6.19;96.32;100241.88;10159997;29;20041;-75
2022/01/12 12:26:25;;;;;;;11.05;5.65;;;;;;;6.15;96.75;100228.16;10142059;29;20412;-76
2022/01/12 12:31:26;;;;;;;10.93;5.45;;;;;;;5.80;96.29;100188.38;10138840;29;20400;-76
2022/01/12 12:36:27;;;;;;;11.48;5.88;;;;;;;4.78;97.44;100029.00;10189001;29;20584;-76
2022/01/12 12:41:37;;;;;;;14.50;6.63;;;;;;;6.15;97.66;100254.53;10170585;29;20126;-76
2022/01/12 12:46:38;;;;;;;11.95;6.55;;;;;;;5.61;97.77;100178.69;10173811;29;20424;-76
2022/01/12 12:51:39;;;;;;;11.95;6.50;;;;;;;6.06;97.45;100254.56;10174165;29;20051;-76
2022/01/12 12:56:40;;;;;;;10.82;6.25;;;;;;;5.52;97.91;100179.53;10173337;29;20501;-77
2022/01/12 13:01:41;;;;;;;11.40;5.38;;;;;;;4.76;98.00;100075.69;10175183;29;20043;-77
2022/01/12 13:06:42;;;;;;;13.48;6.25;;;;;;;5.74;98.06;100239.84;10174689;29;20048;-76
2022/01/12 13:11:46;;;;;;;24.42;6.55;;;;;;;5.86;98.48;100259.84;10173160;29;20099;-77
2022/01/12 13:16:52;;;;;;;8.48;4.95;;;;;;;5.80;98.60;100268.28;10148364;29;20048;-76
2022/01/12 13:21:53;;;;;;;13.90;5.57;;;;;;;5.74;99.20;100260.91;10178539;29;20074;-75
2022/01/12 13:26:55;;;;;;;10.65;4.90;;;;;;;5.06;98.64;100128.38;10179007;29;20054;-75
2022/01/12 13:31:56;;;;;;;15.75;5.53;;;;;;;5.87;100.00;100273.84;10176117;29;20048;-75
2022/01/12 13:36:57;;;;;;;13.60;5.25;;;;;;;4.81;99.40;100086.63;10176722;29;20103;-75
2022/01/12 13:41:59;;;;;;;14.57;5.20;;;;;;;4.93;99.41;100097.03;10178046;29;20036;-76
2022/01/12 13:47:23;;;;;;;15.23;4.60;;;;;;;5.90;99.45;100250.66;10176400;29;20047;-77
2022/01/12 13:52:24;;;;;;;9.77;3.72;;;;;;;5.79;99.75;100245.53;10154929;29;20523;-77
2022/01/12 13:57:26;;;;;;;8.75;3.72;;;;;;;4.89;100.00;100109.66;10146243;29;20040;-76
2022/01/12 14:02:29;;;;;;;6.40;3.90;;;;;;;5.81;100.00;100258.59;10141626;29;20052;-77
2022/01/12 14:07:35;;;;;;;7.53;3.50;;;;;;;5.73;100.00;100232.91;10150755;29;20092;-79
2022/01/12 14:12:37;;;;;;;8.73;3.33;;;;;;;5.04;100.00;100097.75;10149737;29;20067;-74
2022/01/12 14:17:44;;;;;;;5.88;3.60;;;;;;;4.46;100.00;99996.91;10175014;29;20056;-77
2022/01/12 14:22:52;;;;;;;25.55;7.10;;;;;;;6.01;100.00;100249.69;10145397;29;20127;-75
2022/01/12 14:27:53;;;;;;;22.15;7.85;;;;;;;6.01;100.00;100257.59;10154075;29;20083;-75
2022/01/12 14:32:54;;;;;;;12.13;6.25;;;;;;;6.01;100.00;100252.34;10151800;29;20086;-74
2022/01/12 14:37:56;;;;;;;16.15;7.00;;;;;;;6.11;100.00;100276.06;10144261;29;20134;-74
2022/01/12 14:43:03;;;;;;;15.30;7.50;;;;;;;6.12;100.00;100261.91;10144916;29;20059;-73
2022/01/12 14:48:07;;;;;;;66.50;36.90;;;;;;;5.59;100.00;100176.19;10136578;29;20124;-75
2022/01/12 14:53:09;;;;;;;31.23;17.85;;;;;;;5.28;100.00;100116.72;10154492;29;20147;-72
2022/01/12 14:58:10;;;;;;;69.68;38.95;;;;;;;6.10;100.00;100254.16;10175254;29;20044;-75
2022/01/12 15:03:11;;;;;;;30.23;16.98;;;;;;;5.55;100.00;100159.00;10175472;29;20095;-75
2022/01/12 15:08:14;;;;;;;28.15;15.55;;;;;;;6.10;100.00;100269.13;10161255;29;20176;-74
2022/01/12 15:18:17;;;;;;;30.10;14.40;;;;;;;5.98;100.00;100271.06;10135658;29;20040;-74
2022/01/12 15:23:19;;;;;;;73.95;32.78;;;;;;;5.98;100.00;100259.69;10134810;29;20064;-74
2022/01/12 15:28:20;;;;;;;25.48;10.50;;;;;;;5.74;100.00;100226.66;10134576;29;20058;-79
2022/01/12 15:33:21;;;;;;;112.28;40.05;;;;;;;5.31;100.00;100150.69;10134641;29;20056;-76
2022/01/12 15:38:21;;;;;;;13.85;9.27;;;;;;;4.93;100.00;100089.97;10134715;29;20044;-75
2022/01/12 15:43:22;;;;;;;19.27;10.75;;;;;;;5.16;100.00;100137.09;10134486;29;20056;-76
2022/01/12 15:48:23;;;;;;;23.15;12.00;;;;;;;5.72;100.00;100228.63;10152469;29;20045;-77
2022/01/12 15:53:24;;;;;;;18.50;8.65;;;;;;;5.87;100.00;100239.56;10133568;29;20068;-75
2022/01/12 15:58:25;;;;;;;23.85;14.98;;;;;;;5.92;100.00;100254.00;10133614;29;20049;-73
2022/01/12 16:03:27;;;;;;;35.30;21.25;;;;;;;5.79;100.00;100245.53;10169794;29;20051;-77
2022/01/12 16:08:28;;;;;;;30.73;9.98;;;;;;;5.02;100.00;100114.63;10171261;29;20086;-77
2022/01/12 16:13:29;;;;;;;20.80;12.02;;;;;;;5.22;100.00;100157.63;10171866;29;20063;-77
2022/01/12 16:18:31;;;;;;;18.20;6.75;;;;;;;5.52;100.00;100201.44;10163926;29;20126;-78
2022/01/12 16:23:33;;;;;;;14.73;7.20;;;;;;;5.73;100.00;100252.19;10158441;29;20133;-76
2022/01/12 16:28:34;;;;;;;12.63;7.88;;;;;;;4.67;100.00;100079.16;10170115;29;20044;-79
2022/01/12 16:33:35;;;;;;;48.33;19.10;;;;;;;4.76;100.00;100085.41;10164612;29;20793;-80
2022/01/12 16:38:36;;;;;;;51.55;18.35;;;;;;;5.42;100.00;100187.44;10165134;29;20056;-77
2022/01/12 16:43:37;;;;;;;39.20;14.82;;;;;;;4.57;100.00;100050.19;10164326;29;20792;-79
2022/01/12 16:48:39;;;;;;;62.70;21.83;;;;;;;5.50;100.00;100203.34;10163852;29;20044;-79
2022/01/12 16:53:45;;;;;;;59.97;19.52;;;;;;;4.69;100.00;100061.41;10162454;29;20039;-77
2022/01/12 16:58:47;;;;;;;14.13;8.77;;;;;;;4.52;100.00;100051.59;10157353;29;20092;-78
2022/01/12 17:03:49;;;;;;;11.63;7.63;;;;;;;4.69;100.00;100081.63;10161978;29;20048;-78
2022/01/12 17:08:49;;;;;;;13.82;8.55;;;;;;;5.58;100.00;100224.59;10162738;29;20056;-77
2022/01/12 17:13:50;;;;;;;65.50;24.70;;;;;;;4.68;100.00;100069.47;10172527;29;20058;-77
2022/01/12 17:18:57;;;;;;;19.38;11.57;;;;;;;5.24;100.00;100159.16;10172030;29;20117;-77
2022/01/12 17:24:03;;;;;;;16.77;9.93;;;;;;;5.31;100.00;100172.59;10172374;29;20044;-77
2022/01/12 17:29:10;;;;;;;16.13;10.82;;;;;;;5.19;100.00;100150.00;10175986;29;20421;-78
2022/01/12 17:34:18;;;;;;;15.70;9.60;;;;;;;4.53;100.00;100033.03;10184042;29;20059;-77
2022/01/12 17:39:25;;;;;;;15.98;9.80;;;;;;;5.73;100.00;100222.38;10194581;29;20501;-77
2022/01/12 17:44:29;;;;;;;12.45;8.25;;;;;;;5.76;100.00;100230.00;10178715;29;20389;-77
2022/01/12 17:50:07;;;;;;;11.07;7.00;;;;;;;5.54;100.00;100206.56;10165629;29;20390;-78
2022/01/12 17:54:55;;;;;;;12.50;6.63;;;;;;;5.15;100.00;100167.88;10177140;29;20040;-78
2022/01/12 17:59:56;;;;;;;9.50;5.68;;;;;;;4.62;100.00;100098.94;10177372;29;20036;-77
2022/01/12 18:04:57;;;;;;;11.68;6.55;;;;;;;4.93;100.00;100171.56;10175896;29;20044;-78
2022/01/12 18:09:58;;;;;;;16.80;7.03;;;;;;;4.82;100.00;100166.44;10177290;29;20071;-78
2022/01/12 18:14:59;;;;;;;14.88;5.95;;;;;;;4.87;100.00;100177.38;10177180;29;20055;-77
2022/01/12 18:20:04;;;;;;;11.55;5.78;;;;;;;4.71;100.00;100141.06;10175655;29;20055;-78
2022/01/12 18:25:05;;;;;;;13.45;7.28;;;;;;;3.78;100.00;100007.25;10176915;29;20122;-78
2022/01/12 18:30:07;;;;;;;13.38;6.82;;;;;;;4.69;100.00;100152.69;10176111;29;20413;-77
2022/01/12 18:35:09;;;;;;;11.95;7.32;;;;;;;4.51;100.00;100137.53;10176399;29;20517;-78
2022/01/12 18:40:19;;;;;;;11.63;5.90;;;;;;;4.66;100.00;100159.03;10175515;29;20040;-77
2022/01/12 18:45:20;;;;;;;11.60;6.72;;;;;;;4.66;100.00;100171.38;10173903;29;20524;-77
2022/01/12 18:50:21;;;;;;;11.13;5.80;;;;;;;3.69;100.00;100008.88;10175478;29;20039;-77
2022/01/12 18:55:22;;;;;;;11.00;5.60;;;;;;;4.73;100.00;100188.31;10160169;29;20115;-77
2022/01/12 19:00:23;;;;;;;12.10;6.03;;;;;;;4.54;100.00;100174.09;10149900;29;20139;-77
2022/01/12 19:05:24;;;;;;;10.32;6.32;;;;;;;4.42;100.00;100127.81;10134710;29;20587;-78
2022/01/12 19:10:26;;;;;;;10.68;6.05;;;;;;;3.99;100.00;100060.56;10129008;29;20060;-78
2022/01/12 19:15:29;;;;;;;10.77;5.85;;;;;;;3.60;100.00;99983.38;10133424;29;20080;-77
2022/01/12 19:20:30;;;;;;;10.52;5.78;;;;;;;3.89;100.00;100038.69;10135263;29;20047;-77
2022/01/12 19:25:31;;;;;;;9.80;5.97;;;;;;;4.36;100.00;100096.78;10135428;29;20386;-77
2022/01/12 19:30:32;;;;;;;11.90;6.22;;;;;;;4.67;100.00;100136.22;10134293;29;20055;-77
2022/01/12 19:35:33;;;;;;;12.48;5.95;;;;;;;4.72;100.00;100139.25;10167700;29;20088;-76
2022/01/12 19:40:34;;;;;;;10.85;5.35;;;;;;;4.74;100.00;100132.06;10168001;29;20423;-77
2022/01/12 19:45:36;;;;;;;9.27;5.47;;;;;;;4.72;100.00;100136.63;10167466;29;20412;-77
2022/01/12 19:50:37;;;;;;;9.05;5.63;;;;;;;4.63;100.00;100119.84;10170668;29;20177;-76
2022/01/12 19:56:11;;;;;;;10.55;5.78;;;;;;;4.79;100.00;100133.31;10172176;29;20143;-77
2022/01/12 20:01:32;;;;;;;9.18;5.43;;;;;;;4.82;100.00;100134.84;10170033;29;20088;-77
2022/01/12 20:06:33;;;;;;;11.32;6.10;;;;;;;4.78;100.00;100120.28;10172777;29;20250;-77
2022/01/12 20:11:33;;;;;;;12.52;6.78;;;;;;;4.66;100.00;100102.97;10173618;29;20147;-77
2022/01/12 20:16:44;;;;;;;10.45;6.10;;;;;;;4.76;100.00;100116.97;10178521;29;20047;-77
2022/01/12 20:22:03;;;;;;;10.88;6.45;;;;;;;3.92;100.00;99977.13;10213023;29;20058;-77
2022/01/12 20:27:06;;;;;;;13.23;7.35;;;;;;;4.78;100.00;100115.03;10212367;29;20043;-77
2022/01/12 20:32:09;;;;;;;10.32;5.68;;;;;;;4.70;100.00;100112.25;10210870;29;20079;-77
2022/01/12 20:37:10;;;;;;;9.02;5.90;;;;;;;4.78;100.00;100128.19;10212182;29;20126;-77
2022/01/12 20:42:11;;;;;;;10.05;5.05;;;;;;;4.48;100.00;100074.69;10212420;29;20139;-77
2022/01/12 20:47:16;;;;;;;7.90;5.22;;;;;;;3.41;100.00;99900.09;10211752;29;20535;-77
2022/01/12 20:52:18;;;;;;;6.55;4.13;;;;;;;4.82;100.00;100129.59;10212661;29;20052;-77
2022/01/12 20:57:20;;;;;;;8.57;5.20;;;;;;;4.62;100.00;100086.63;10210939;29;20562;-76
2022/01/12 21:02:21;;;;;;;9.82;5.25;;;;;;;4.47;100.00;100065.13;10211031;29;20134;-76
2022/01/12 21:07:21;;;;;;;9.52;5.30;;;;;;;4.72;100.00;100103.25;10211564;29;20146;-77
2022/01/12 21:12:22;;;;;;;10.75;5.75;;;;;;;4.73;100.00;100112.00;10219821;29;20062;-76
2022/01/12 21:17:23;;;;;;;9.75;5.80;;;;;;;4.10;100.00;100030.72;10218360;29;20043;-77
2022/01/12 21:22:25;;;;;;;8.73;5.28;;;;;;;4.38;100.00;100067.75;10217387;29;20052;-76
2022/01/12 21:27:26;;;;;;;11.20;5.65;;;;;;;4.36;100.00;100075.75;10217964;29;20047;-76
2022/01/12 21:32:27;;;;;;;9.93;5.50;;;;;;;4.61;100.00;100110.41;10217889;29;20051;-78
2022/01/12 21:37:45;;;;;;;11.13;6.85;;;;;;;4.05;100.00;100009.25;10218168;29;20504;-77
2022/01/12 21:42:49;;;;;;;10.32;6.53;;;;;;;4.30;100.00;100050.00;10217506;29;20519;-77
2022/01/12 21:47:49;;;;;;;12.05;7.28;;;;;;;4.43;100.00;100066.38;10217611;29;20040;-77
2022/01/12 21:52:50;;;;;;;12.43;7.18;;;;;;;4.64;100.00;100108.38;10217917;29;20073;-77
2022/01/12 21:57:51;;;;;;;9.15;5.90;;;;;;;4.61;100.00;100113.91;10216052;29;20577;-77
2022/01/12 22:02:52;;;;;;;9.00;6.35;;;;;;;4.11;100.00;100048.97;10217462;29;20142;-76
2022/01/12 22:07:53;;;;;;;10.55;6.07;;;;;;;4.47;100.00;100130.88;10216766;29;20042;-77
2022/01/12 22:12:54;;;;;;;10.35;6.20;;;;;;;3.80;100.00;99995.63;10217239;29;20493;-76
2022/01/12 22:17:55;;;;;;;8.57;5.30;;;;;;;4.36;100.00;100096.78;10216245;29;20043;-76
2022/01/12 22:22:55;;;;;;;11.13;5.47;;;;;;;4.62;100.00;100138.41;10216911;29;20142;-76
2022/01/12 22:27:56;;;;;;;10.63;5.75;;;;;;;4.59;100.00;100128.97;10216669;29;20050;-76
2022/01/12 22:32:57;;;;;;;6.80;4.68;;;;;;;3.81;100.00;99999.91;10214314;29;20521;-76
2022/01/12 22:37:58;;;;;;;9.80;4.72;;;;;;;3.75;100.00;99997.00;10215175;29;20048;-76
2022/01/12 22:43:03;;;;;;;7.90;5.00;;;;;;;3.45;100.00;99927.75;10215866;29;20043;-77
2022/01/12 22:48:06;;;;;;;11.13;5.20;;;;;;;4.60;100.00;100106.13;10216314;29;20046;-75
2022/01/12 22:53:07;;;;;;;7.72;4.50;;;;;;;3.96;100.00;100013.53;10215891;29;20403;-76
2022/01/12 22:58:14;;;;;;;7.05;4.30;;;;;;;4.20;100.00;100049.97;10213840;29;20051;-76
2022/01/12 23:03:15;;;;;;;3.45;1.85;;;;;;;3.85;100.00;100024.13;10215604;29;20445;-75
2022/01/12 23:08:16;;;;;;;2.22;1.10;;;;;;;3.33;100.00;100012.84;10214947;29;20058;-77
2022/01/12 23:13:16;;;;;;;3.17;1.02;;;;;;;3.70;100.00;100147.13;10204603;29;20456;-76
2022/01/12 23:18:17;;;;;;;3.03;1.25;;;;;;;3.23;100.00;100148.44;10158832;29;20056;-75
2022/01/12 23:23:19;;;;;;;2.80;1.20;;;;;;;2.94;100.00;100170.00;10160801;29;20143;-76
2022/01/12 23:28:20;;;;;;;3.35;1.15;;;;;;;2.50;100.00;100124.56;10135438;29;20078;-76
2022/01/12 23:33:35;;;;;;;3.17;1.48;;;;;;;2.54;100.00;100157.44;10134552;29;20063;-76
2022/01/12 23:59:50;;;;;;;4.47;1.83;;;;;;;1.47;100.00;100142.13;10134717;29;20145;-77
